createdAt,value
2018-05-01T00:00:07.916Z,1.33
2018-05-01T00:02:36.004Z,1.43
2018-05-01T00:05:03.692Z,1.93
2018-05-01T00:07:32.108Z,2.50
2018-05-01T00:09:59.759Z,1.45
2018-05-01T00:12:27.367Z,1.60
2018-05-01T00:14:55.027Z,1.52
2018-05-01T00:17:22.644Z,1.67
2018-05-01T00:19:50.295Z,1.50
2018-05-01T00:22:17.959Z,1.42
2018-05-01T00:24:45.820Z,1.50
2018-05-01T00:27:14.168Z,5.33
2018-05-01T00:29:42.580Z,1.40
2018-05-01T00:32:10.251Z,1.67
2018-05-01T00:34:37.855Z,1.73
2018-05-01T00:37:05.506Z,1.27
2018-05-01T00:39:33.119Z,1.33
2018-05-01T00:42:00.773Z,1.30
2018-05-01T00:44:28.379Z,4.63
2018-05-01T00:46:56.024Z,1.63
2018-05-01T00:49:23.782Z,1.63
2018-05-01T00:51:51.539Z,1.25
2018-05-01T00:54:19.126Z,1.40
2018-05-01T00:56:47.320Z,1.87
2018-05-01T00:59:15.754Z,1.53
2018-05-01T01:01:43.446Z,1.37
2018-05-01T01:04:11.099Z,1.50
2018-05-01T01:06:38.754Z,1.33
2018-05-01T01:09:06.412Z,1.90
2018-05-01T01:11:34.220Z,1.03
2018-05-01T01:14:02.630Z,1.00
2018-05-01T01:16:30.261Z,1.80
2018-05-01T01:18:57.919Z,2.65
2018-05-01T01:21:25.584Z,2.30
2018-05-01T01:23:53.219Z,2.53
2018-05-01T01:26:20.904Z,1.43
2018-05-01T01:28:48.538Z,1.10
2018-05-01T01:31:17.280Z,2.17
2018-05-01T01:33:44.951Z,1.65
2018-05-01T01:36:12.071Z,2.10
2018-05-01T01:38:39.205Z,1.50
2018-05-01T01:41:06.406Z,1.30
2018-05-01T01:43:33.532Z,1.80
2018-05-01T01:46:00.704Z,1.03
2018-05-01T01:48:27.831Z,1.33
2018-05-01T01:50:54.991Z,1.50
2018-05-01T01:53:22.116Z,1.00
2018-05-01T01:55:49.283Z,0.87
2018-05-01T01:58:16.415Z,1.77
2018-05-01T02:00:43.584Z,0.87
2018-05-01T02:03:10.708Z,0.80
2018-05-01T02:05:37.887Z,3.37
2018-05-01T02:08:05.028Z,3.70
2018-05-01T02:10:32.150Z,2.60
2018-05-01T02:12:59.303Z,1.10
2018-05-01T02:15:26.467Z,0.83
2018-05-01T02:17:53.588Z,1.20
2018-05-01T02:20:20.759Z,1.17
2018-05-01T02:22:47.880Z,0.90
2018-05-01T02:25:15.002Z,0.90
2018-05-01T02:27:42.220Z,0.90
2018-05-01T02:30:09.383Z,1.50
2018-05-01T02:32:36.500Z,0.70
2018-05-01T02:35:03.667Z,0.77
2018-05-01T02:37:31.340Z,1.48
2018-05-01T02:39:58.663Z,2.40
2018-05-01T02:42:25.801Z,1.55
2018-05-01T02:44:52.972Z,2.78
2018-05-01T02:47:20.324Z,4.75
2018-05-01T02:49:47.491Z,3.30
2018-05-01T02:52:14.622Z,0.70
2018-05-01T02:54:41.758Z,2.35
2018-05-01T02:57:08.925Z,0.73
2018-05-01T02:59:36.059Z,1.23
2018-05-01T03:02:03.215Z,1.37
2018-05-01T03:04:30.340Z,0.62
2018-05-01T03:06:57.511Z,3.58
2018-05-01T03:09:24.676Z,1.17
2018-05-01T03:11:52.418Z,2.00
2018-05-01T03:14:20.207Z,2.10
2018-05-01T03:16:47.367Z,1.03
2018-05-01T03:19:15.283Z,3.03
2018-05-01T03:21:42.559Z,0.90
2018-05-01T03:24:09.793Z,2.20
2018-05-01T03:26:37.667Z,1.23
2018-05-01T03:29:04.828Z,4.03
2018-05-01T03:31:32.218Z,1.60
2018-05-01T03:33:59.383Z,0.80
2018-05-01T03:36:26.544Z,0.80
2018-05-01T03:38:53.706Z,1.33
2018-05-01T03:41:21.388Z,3.90
2018-05-01T03:43:48.515Z,0.68
2018-05-01T03:46:15.674Z,0.75
2018-05-01T03:48:42.804Z,1.50
2018-05-01T03:51:10.962Z,0.70
2018-05-01T03:53:38.079Z,0.98
2018-05-01T03:56:05.272Z,0.80
2018-05-01T03:58:32.449Z,1.00
2018-05-01T04:00:59.609Z,0.80
2018-05-01T04:03:26.743Z,3.60
2018-05-01T04:05:54.734Z,1.60
2018-05-01T04:08:22.148Z,0.77
2018-05-01T04:10:49.289Z,1.07
2018-05-01T04:13:16.424Z,0.70
2018-05-01T04:15:43.597Z,1.13
2018-05-01T04:18:11.797Z,1.17
2018-05-01T04:20:38.992Z,0.70
2018-05-01T04:23:06.111Z,0.70
2018-05-01T04:25:33.263Z,0.70
2018-05-01T04:28:00.996Z,1.17
2018-05-01T04:30:28.159Z,0.70
2018-05-01T04:32:55.881Z,1.62
2018-05-01T04:35:23.550Z,0.80
2018-05-01T04:37:50.699Z,0.53
2018-05-01T04:40:18.131Z,0.73
2018-05-01T04:42:45.315Z,2.07
2018-05-01T04:45:12.500Z,0.50
2018-05-01T04:47:39.629Z,0.60
2018-05-01T04:50:07.557Z,1.45
2018-05-01T04:52:34.717Z,0.90
2018-05-01T04:55:01.831Z,1.47
2018-05-01T04:57:28.991Z,0.80
2018-05-01T04:59:56.111Z,0.80
2018-05-01T05:02:23.308Z,0.70
2018-05-01T05:04:51.333Z,3.80
2018-05-01T05:07:18.548Z,0.83
2018-05-01T05:09:45.680Z,5.03
2018-05-01T05:12:12.830Z,0.93
2018-05-01T05:14:40.018Z,0.50
2018-05-01T05:17:08.866Z,0.60
2018-05-01T05:19:36.040Z,0.60
2018-05-01T05:22:03.225Z,1.08
2018-05-01T05:24:30.391Z,2.17
2018-05-01T05:26:57.551Z,0.80
2018-05-01T05:29:24.698Z,2.60
2018-05-01T05:31:51.869Z,4.45
2018-05-01T05:34:19.040Z,0.50
2018-05-01T05:36:46.927Z,0.52
2018-05-01T05:39:14.088Z,0.60
2018-05-01T05:41:41.202Z,0.70
2018-05-01T05:44:08.367Z,1.93
2018-05-01T05:46:35.535Z,1.10
2018-05-01T05:49:02.707Z,0.50
2018-05-01T05:51:29.863Z,3.10
2018-05-01T05:53:57.025Z,1.25
2018-05-01T05:56:25.074Z,0.80
2018-05-01T05:58:54.104Z,0.97
2018-05-01T06:01:21.272Z,0.50
2018-05-01T06:03:48.451Z,0.47
2018-05-01T06:06:15.837Z,0.60
2018-05-01T06:08:42.963Z,0.50
2018-05-01T06:11:10.133Z,0.70
2018-05-01T06:13:37.270Z,0.68
2018-05-01T06:16:04.533Z,0.88
2018-05-01T06:18:31.651Z,3.15
2018-05-01T06:20:59.049Z,1.67
2018-05-01T06:23:26.217Z,0.70
2018-05-01T06:25:53.956Z,0.60
2018-05-01T06:28:21.122Z,1.63
2018-05-01T06:30:48.338Z,0.57
2018-05-01T06:33:15.504Z,0.52
2018-05-01T06:35:42.629Z,0.80
2018-05-01T06:38:10.803Z,0.68
2018-05-01T06:40:37.927Z,0.90
2018-05-01T06:43:05.058Z,0.80
2018-05-01T06:45:32.222Z,1.00
2018-05-01T06:48:00.374Z,1.00
2018-05-01T06:50:27.508Z,1.15
2018-05-01T06:52:54.667Z,1.30
2018-05-01T06:55:21.789Z,1.00
2018-05-01T06:57:49.072Z,1.00
2018-05-01T07:00:16.149Z,1.00
2018-05-01T07:02:43.303Z,1.25
2018-05-01T07:05:10.432Z,0.70
2018-05-01T07:07:37.720Z,0.90
2018-05-01T07:10:06.040Z,1.23
2018-05-01T07:12:33.998Z,0.70
2018-05-01T07:15:02.133Z,1.10
2018-05-01T07:17:31.223Z,1.00
2018-05-01T07:19:58.962Z,0.90
2018-05-01T07:22:28.045Z,1.20
2018-05-01T07:24:55.539Z,0.88
2018-05-01T07:27:25.884Z,0.98
2018-05-01T07:29:53.091Z,1.48
2018-05-01T07:32:21.581Z,2.00
2018-05-01T07:34:48.946Z,0.80
2018-05-01T07:37:16.408Z,1.33
2018-05-01T07:39:43.594Z,0.82
2018-05-01T07:42:10.724Z,1.53
2018-05-01T07:44:38.657Z,1.20
2018-05-01T07:47:06.459Z,1.48
2018-05-01T07:49:33.651Z,1.48
2018-05-01T07:52:01.902Z,1.50
2018-05-01T07:54:29.316Z,1.75
2018-05-01T07:56:56.478Z,1.98
2018-05-01T07:59:24.363Z,1.50
2018-05-01T08:01:51.661Z,1.85
2018-05-01T08:04:18.785Z,1.27
2018-05-01T08:06:46.264Z,2.35
2018-05-01T08:09:15.181Z,1.25
2018-05-01T08:11:43.153Z,1.73
2018-05-01T08:14:10.327Z,2.40
2018-05-01T08:16:37.664Z,2.37
2018-05-01T08:19:04.833Z,2.20
2018-05-01T08:21:33.530Z,2.40
2018-05-01T08:24:01.500Z,2.50
2018-05-01T08:26:28.643Z,2.70
2018-05-01T08:28:55.998Z,2.33
2018-05-01T08:31:23.165Z,3.90
2018-05-01T08:33:52.052Z,3.00
2018-05-01T08:36:19.210Z,3.03
2018-05-01T08:38:46.469Z,3.10
2018-05-01T08:41:16.217Z,2.90
2018-05-01T08:43:43.534Z,2.97
2018-05-01T08:46:10.703Z,3.10
2018-05-01T08:48:37.881Z,1.87
2018-05-01T08:51:06.007Z,2.78
2018-05-01T08:53:34.839Z,1.50
2018-05-01T08:56:02.532Z,3.80
2018-05-01T08:58:29.697Z,3.67
2018-05-01T09:00:57.183Z,4.23
2018-05-01T09:03:25.560Z,3.50
2018-05-01T09:05:53.567Z,4.72
2018-05-01T09:08:20.695Z,4.00
2018-05-01T09:10:50.612Z,3.50
2018-05-01T09:13:18.012Z,3.40
2018-05-01T09:15:45.892Z,3.53
2018-05-01T09:18:13.271Z,4.97
2018-05-01T09:20:40.429Z,3.25
2018-05-01T09:23:08.390Z,4.45
2018-05-01T09:25:36.561Z,3.60
2018-05-01T09:28:03.672Z,3.40
2018-05-01T09:30:31.427Z,3.30
2018-05-01T09:33:00.494Z,3.77
2018-05-01T09:35:29.836Z,3.57
2018-05-01T09:40:48.085Z,2.42
2018-05-01T09:43:15.669Z,3.65
2018-05-01T09:45:43.328Z,4.03
2018-05-01T09:48:11.971Z,3.35
2018-05-01T09:50:39.174Z,2.90
2018-05-01T09:53:07.404Z,3.15
2018-05-01T09:55:35.042Z,4.62
2018-05-01T09:58:03.441Z,3.83
2018-05-01T10:00:31.102Z,3.40
2018-05-01T10:02:59.070Z,3.60
2018-05-01T10:05:27.067Z,3.87
2018-05-01T10:07:57.522Z,3.63
2018-05-01T10:10:26.679Z,4.07
2018-05-01T10:13:00.006Z,4.77
2018-05-01T10:15:33.095Z,3.90
2018-05-01T10:18:01.075Z,3.70
2018-05-01T10:20:29.056Z,3.92
2018-05-01T10:22:56.681Z,3.30
2018-05-01T10:25:24.520Z,3.73
2018-05-01T10:27:52.673Z,3.87
2018-05-01T10:30:22.102Z,2.95
2018-05-01T10:32:50.863Z,3.30
2018-05-01T10:35:18.853Z,3.90
2018-05-01T10:37:47.007Z,2.27
2018-05-01T10:40:16.835Z,3.65
2018-05-01T10:42:44.727Z,2.57
2018-05-01T10:45:13.493Z,3.67
2018-05-01T10:47:41.903Z,2.70
2018-05-01T10:50:11.724Z,2.77
2018-05-01T10:52:39.528Z,3.50
2018-05-01T10:55:07.894Z,3.13
2018-05-01T10:57:35.972Z,2.60
2018-05-01T11:00:08.504Z,2.60
2018-05-01T11:02:37.026Z,4.30
2018-05-01T11:05:05.025Z,3.47
2018-05-01T11:07:32.854Z,2.80
2018-05-01T11:10:02.503Z,2.40
2018-05-01T11:12:30.752Z,2.80
2018-05-01T11:14:58.448Z,2.53
2018-05-01T11:17:26.122Z,2.27
2018-05-01T11:19:59.969Z,2.60
2018-05-01T11:22:28.721Z,2.62
2018-05-01T11:24:56.387Z,1.73
2018-05-01T11:27:24.890Z,2.67
2018-05-01T11:29:52.550Z,2.00
2018-05-01T11:32:20.256Z,2.55
2018-05-01T11:34:49.199Z,1.47
2018-05-01T11:37:16.871Z,2.90
2018-05-01T11:39:44.523Z,1.90
2018-05-01T11:42:12.185Z,1.97
2018-05-01T11:44:39.843Z,1.70
2018-05-01T11:47:07.462Z,2.77
2018-05-01T11:49:35.146Z,2.07
2018-05-01T11:52:02.752Z,2.37
2018-05-01T11:54:30.422Z,2.53
2018-05-01T11:56:58.848Z,2.05
2018-05-01T11:59:27.199Z,1.40
2018-05-01T12:01:54.854Z,1.60
2018-05-01T12:04:22.475Z,1.67
2018-05-01T12:06:50.532Z,1.77
2018-05-01T12:09:18.205Z,1.87
2018-05-01T12:11:45.835Z,1.83
2018-05-01T12:14:13.576Z,1.70
2018-05-01T12:16:41.713Z,1.53
2018-05-01T12:19:09.339Z,4.00
2018-05-01T12:21:36.999Z,2.30
2018-05-01T12:24:06.199Z,2.53
2018-05-01T12:26:33.853Z,1.80
2018-05-01T12:29:01.466Z,2.10
2018-05-01T12:31:30.652Z,2.58
2018-05-01T12:33:59.547Z,1.80
2018-05-01T12:36:28.328Z,2.70
2018-05-01T12:38:55.936Z,3.00
2018-05-01T12:41:23.604Z,3.00
2018-05-01T12:43:53.212Z,2.00
2018-05-01T12:46:20.823Z,5.18
2018-05-01T12:48:49.247Z,2.77
2018-05-01T12:51:16.917Z,2.37
2018-05-01T12:53:48.132Z,1.90
2018-05-01T12:56:21.444Z,1.87
2018-05-01T12:58:50.914Z,1.87
2018-05-01T13:01:25.417Z,2.90
2018-05-01T13:03:55.232Z,2.10
2018-05-01T13:06:23.864Z,2.40
2018-05-01T13:08:53.177Z,2.40
2018-05-01T13:11:22.071Z,2.10
2018-05-01T13:13:51.835Z,2.50
2018-05-01T13:16:19.451Z,1.83
2018-05-01T13:18:54.518Z,2.73
2018-05-01T13:21:23.044Z,2.50
2018-05-01T13:23:50.670Z,2.23
2018-05-01T13:26:21.804Z,2.45
2018-05-01T13:28:52.389Z,2.47
2018-05-01T13:31:22.714Z,2.47
2018-05-01T13:33:50.351Z,2.27
2018-05-01T13:36:18.469Z,2.70
2018-05-01T13:38:46.888Z,2.60
2018-05-01T13:41:15.176Z,2.53
2018-05-01T13:43:42.783Z,2.90
2018-05-01T13:46:16.353Z,2.35
2018-05-01T13:48:44.405Z,2.73
2018-05-01T13:51:13.194Z,3.47
2018-05-01T13:53:40.896Z,3.65
2018-05-01T13:56:08.538Z,3.20
2018-05-01T13:58:36.190Z,2.60
2018-05-01T14:01:03.852Z,3.00
2018-05-01T14:03:31.469Z,2.20
2018-05-01T14:05:59.168Z,2.20
2018-05-01T14:08:26.778Z,2.00
2018-05-01T14:10:54.393Z,1.97
2018-05-01T14:13:22.135Z,1.77
2018-05-01T14:15:49.809Z,2.47
2018-05-01T14:18:17.490Z,2.08
2018-05-01T14:20:45.140Z,1.77
2018-05-01T14:23:12.791Z,3.13
2018-05-01T14:25:40.476Z,2.87
2018-05-01T14:28:08.794Z,3.15
2018-05-01T14:30:36.443Z,2.80
2018-05-01T14:33:04.582Z,2.20
2018-05-01T14:35:32.227Z,3.40
2018-05-01T14:37:59.848Z,2.70
2018-05-01T14:40:27.519Z,2.12
2018-05-01T14:42:55.132Z,2.00
2018-05-01T14:45:22.755Z,2.42
2018-05-01T14:47:50.446Z,3.17
2018-05-01T14:50:19.628Z,2.20
2018-05-01T14:52:48.204Z,2.20
2018-05-01T14:55:16.598Z,4.37
2018-05-01T14:57:44.247Z,2.25
2018-05-01T15:00:11.897Z,2.40
2018-05-01T15:02:39.552Z,2.10
2018-05-01T15:05:07.304Z,2.40
2018-05-01T15:07:34.971Z,2.62
2018-05-01T15:10:02.653Z,2.30
2018-05-01T15:12:30.653Z,2.70
2018-05-01T15:14:58.290Z,2.60
2018-05-01T15:17:26.292Z,2.53
2018-05-01T15:19:53.963Z,2.63
2018-05-01T15:22:21.588Z,2.75
2018-05-01T15:24:50.019Z,3.33
2018-05-01T15:27:17.636Z,2.60
2018-05-01T15:29:45.288Z,3.70
2018-05-01T15:32:13.925Z,2.80
2018-05-01T15:34:41.687Z,2.20
2018-05-01T15:37:09.343Z,5.37
2018-05-01T15:39:37.006Z,4.67
2018-05-01T15:42:04.619Z,2.62
2018-05-01T15:44:33.408Z,3.97
2018-05-01T15:47:01.341Z,5.10
2018-05-01T15:49:28.962Z,3.50
2018-05-01T15:51:56.675Z,3.67
2018-05-01T15:54:25.776Z,6.60
2018-05-01T15:56:53.433Z,2.75
2018-05-01T15:59:21.804Z,5.77
2018-05-01T16:01:50.229Z,4.43
2018-05-01T16:04:17.873Z,6.20
2018-05-01T16:06:45.612Z,4.20
2018-05-01T16:09:13.239Z,9.15
2018-05-01T16:11:40.846Z,8.07
2018-05-01T16:14:08.603Z,7.60
2018-05-01T16:16:36.223Z,9.37
2018-05-01T16:19:03.846Z,7.97
2018-05-01T16:21:31.695Z,4.22
2018-05-01T16:24:00.202Z,4.00
2018-05-01T16:26:27.761Z,5.00
2018-05-01T16:28:55.414Z,3.93
2018-05-01T16:31:23.032Z,9.65
2018-05-01T16:33:50.796Z,6.10
2018-05-01T16:36:18.725Z,7.80
2018-05-01T16:38:47.104Z,4.63
2018-05-01T16:41:14.759Z,7.60
2018-05-01T16:43:42.367Z,4.63
2018-05-01T16:46:10.791Z,6.03
2018-05-01T16:48:38.467Z,8.43
2018-05-01T16:51:06.111Z,7.72
2018-05-01T16:53:33.729Z,7.80
2018-05-01T16:56:01.404Z,10.88
2018-05-01T16:58:29.035Z,10.65
2018-05-01T17:00:56.688Z,7.27
2018-05-01T17:03:24.686Z,8.80
2018-05-01T17:05:52.336Z,14.73
2018-05-01T17:08:21.080Z,8.26
2018-05-01T17:10:48.719Z,7.60
2018-05-01T17:13:16.367Z,12.18
2018-05-01T17:15:44.021Z,9.68
2018-05-01T17:18:12.215Z,12.13
2018-05-01T17:20:40.080Z,16.00
2018-05-01T17:23:07.739Z,8.80
2018-05-01T17:25:35.395Z,13.80
2018-05-01T17:28:03.103Z,10.00
2018-05-01T17:30:30.702Z,9.30
2018-05-01T17:32:58.406Z,8.50
2018-05-01T17:35:26.015Z,9.63
2018-05-01T17:37:53.998Z,8.67
2018-05-01T17:40:21.655Z,10.68
2018-05-01T17:42:49.735Z,9.00
2018-05-01T17:45:17.440Z,7.63
2018-05-01T17:47:45.048Z,9.25
2018-05-01T17:50:15.914Z,7.00
2018-05-01T17:52:43.790Z,9.60
2018-05-01T17:55:11.560Z,6.32
2018-05-01T17:57:44.119Z,5.70
2018-05-01T18:00:12.105Z,6.50
2018-05-01T18:02:40.532Z,5.57
2018-05-01T18:05:08.175Z,10.18
2018-05-01T18:07:36.739Z,9.10
2018-05-01T18:10:04.557Z,10.82
2018-05-01T18:12:34.395Z,9.40
2018-05-01T18:15:02.672Z,7.33
2018-05-01T18:17:30.498Z,7.40
2018-05-01T18:19:58.760Z,4.57
2018-05-01T18:22:26.579Z,7.27
2018-05-01T18:24:57.265Z,7.80
2018-05-01T18:27:32.271Z,10.93
2018-05-01T18:30:04.594Z,5.70
2018-05-01T18:32:39.444Z,6.77
2018-05-01T18:35:13.746Z,13.68
2018-05-01T18:37:41.643Z,7.55
2018-05-01T18:40:09.918Z,10.55
2018-05-01T18:42:37.579Z,8.88
2018-05-01T18:45:05.229Z,10.48
2018-05-01T18:47:32.883Z,14.85
2018-05-01T18:50:00.826Z,7.85
2018-05-01T18:52:28.594Z,11.77
2018-05-01T18:54:56.259Z,5.62
2018-05-01T18:57:23.956Z,10.07
2018-05-01T18:59:53.568Z,6.50
2018-05-01T19:02:21.274Z,12.23
2018-05-01T19:04:49.115Z,6.10
2018-05-01T19:07:16.773Z,6.17
2018-05-01T19:09:45.045Z,9.00
2018-05-01T19:12:12.715Z,13.13
2018-05-01T19:14:40.364Z,7.00
2018-05-01T19:17:08.539Z,10.33
2018-05-01T19:19:36.156Z,8.00
2018-05-01T19:22:04.108Z,6.25
2018-05-01T19:24:31.711Z,6.20
2018-05-01T19:26:59.367Z,7.40
2018-05-01T19:29:28.039Z,8.10
2018-05-01T19:31:56.683Z,7.13
2018-05-01T19:34:24.401Z,8.73
2018-05-01T19:36:52.023Z,8.27
2018-05-01T19:39:20.403Z,8.00
2018-05-01T19:41:48.056Z,9.18
2018-05-01T19:44:15.668Z,6.70
2018-05-01T19:46:43.327Z,13.38
2018-05-01T19:49:10.947Z,11.00
2018-05-01T19:51:38.606Z,10.48
2018-05-01T19:54:07.015Z,10.43
2018-05-01T19:56:34.690Z,9.20
2018-05-01T19:59:02.319Z,6.60
2018-05-01T20:01:29.937Z,8.70
2018-05-01T20:03:57.619Z,12.27
2018-05-01T20:06:25.232Z,7.12
2018-05-01T20:08:52.929Z,7.07
2018-05-01T20:11:21.297Z,11.03
2018-05-01T20:13:49.682Z,6.20
2018-05-01T20:16:17.295Z,9.03
2018-05-01T20:18:44.949Z,10.10
2018-05-01T20:21:12.561Z,8.33
2018-05-01T20:23:40.361Z,5.47
2018-05-01T20:26:08.735Z,4.50
2018-05-01T20:28:37.153Z,6.87
2018-05-01T20:31:05.531Z,5.20
2018-05-01T20:33:33.143Z,8.87
2018-05-01T20:36:01.572Z,7.00
2018-05-01T20:38:29.186Z,8.10
2018-05-01T20:40:57.604Z,5.97
2018-05-01T20:43:25.216Z,8.10
2018-05-01T20:45:52.872Z,13.07
2018-05-01T20:48:21.830Z,6.22
2018-05-01T20:50:49.446Z,5.32
2018-05-01T20:53:17.769Z,5.87
2018-05-01T20:55:46.055Z,9.13
2018-05-01T20:58:13.669Z,4.60
2018-05-01T21:00:41.569Z,7.47
2018-05-01T21:03:09.183Z,5.95
2018-05-01T21:05:36.836Z,8.20
2018-05-01T21:08:04.484Z,9.27
2018-05-01T21:10:32.143Z,5.93
2018-05-01T21:12:59.764Z,4.53
2018-05-01T21:15:27.386Z,8.00
2018-05-01T21:17:55.044Z,6.77
2018-05-01T21:20:22.650Z,16.87
2018-05-01T21:22:50.711Z,11.00
2018-05-01T21:25:19.056Z,5.93
2018-05-01T21:27:46.662Z,7.23
2018-05-01T21:30:14.332Z,7.30
2018-05-01T21:32:41.955Z,11.53
2018-05-01T21:35:10.192Z,6.32
2018-05-01T21:37:38.617Z,6.45
2018-05-01T21:40:06.729Z,6.10
2018-05-01T21:42:35.215Z,4.50
2018-05-01T21:45:03.143Z,7.07
2018-05-01T21:47:30.760Z,12.87
2018-05-01T21:49:58.439Z,7.45
2018-05-01T21:52:26.090Z,5.17
2018-05-01T21:54:53.739Z,5.83
2018-05-01T21:57:21.449Z,7.73
2018-05-01T21:59:49.817Z,5.30
2018-05-01T22:02:17.423Z,7.70
2018-05-01T22:04:45.898Z,4.75
2018-05-01T22:07:13.543Z,5.80
2018-05-01T22:09:41.167Z,4.47
2018-05-01T22:12:08.815Z,10.77
2018-05-01T22:14:36.420Z,6.13
2018-05-01T22:17:04.084Z,4.83
2018-05-01T22:19:31.823Z,7.00
2018-05-01T22:21:59.468Z,10.33
2018-05-01T22:24:27.071Z,6.70
2018-05-01T22:26:55.482Z,12.43
2018-05-01T22:29:23.185Z,7.28
2018-05-01T22:31:50.844Z,5.23
2018-05-01T22:34:18.455Z,8.20
2018-05-01T22:36:46.099Z,7.47
2018-05-01T22:39:14.515Z,6.03
2018-05-01T22:41:42.167Z,4.72
2018-05-01T22:44:09.818Z,6.30
2018-05-01T22:46:37.460Z,7.40
2018-05-01T22:49:05.739Z,6.23
2018-05-01T22:51:33.378Z,5.47
2018-05-01T22:54:01.035Z,8.17
2018-05-01T22:56:28.649Z,5.70
2018-05-01T22:58:56.263Z,5.10
2018-05-01T23:01:23.903Z,5.22
2018-05-01T23:03:51.514Z,5.40
2018-05-01T23:06:19.175Z,8.70
2018-05-01T23:08:46.786Z,6.47
2018-05-01T23:11:14.392Z,6.95
2018-05-01T23:13:42.072Z,7.40
2018-05-01T23:16:12.276Z,4.50
2018-05-01T23:18:39.931Z,7.73
2018-05-01T23:21:08.301Z,8.03
2018-05-01T23:23:37.176Z,5.90
2018-05-01T23:26:04.792Z,5.13
2018-05-01T23:28:32.431Z,5.93
2018-05-01T23:31:00.043Z,6.57
2018-05-01T23:33:27.700Z,4.93
2018-05-01T23:35:55.303Z,5.97
2018-05-01T23:38:22.951Z,6.10
2018-05-01T23:40:51.360Z,8.43
2018-05-01T23:43:18.970Z,5.03
2018-05-01T23:45:46.629Z,8.80
2018-05-01T23:48:14.247Z,6.18
2018-05-01T23:50:41.851Z,6.20
2018-05-01T23:53:09.496Z,4.65
2018-05-01T23:55:37.164Z,7.67
2018-05-01T23:58:04.762Z,4.93
